<?xml version="1.0" encoding="utf-8"?>
<gpx xmlns:xsi="http://www.w3.org/2001/XMLSchema-instance" xmlns:xsd="http://www.w3.org/2001/XMLSchema" version="1.1" creator="Shapelink.com" xmlns="http://www.topografix.com/GPX/1/1" xmlns:gpxtpx="http://www.garmin.com/xmlschemas/TrackPointExtension/v1">
  <metadata>
    <name>Cykling 12.48 km, 2019-09-16</name>
    <desc></desc>
    <author><name>Henrik Staffas</name></author> 
    <time>2019-09-16T16:37:18Z</time>
  </metadata>
  <trk>
    <name>Cykling 12.48 km, 2019-09-16</name>
    <trkseg>
      <trkpt lat="59.333555590221" lon="18.017894262127">
        <ele>71</ele>
        <time>2019-09-16T16:37:18Z</time>
      </trkpt>
      <trkpt lat="59.333506891382" lon="18.017768198351">
        <ele>71.2</ele>
        <time>2019-09-16T16:37:21Z</time>
      </trkpt>
      <trkpt lat="59.333414187568" lon="18.017549849856">
        <ele>71.2</ele>
        <time>2019-09-16T16:37:26Z</time>
      </trkpt>
      <trkpt lat="59.333236658926" lon="18.01713628691">
        <ele>71.2</ele>
        <time>2019-09-16T16:37:35Z</time>
      </trkpt>
      <trkpt lat="59.333307318343" lon="18.016980551208">
        <ele>70.2</ele>
        <time>2019-09-16T16:37:39Z</time>
      </trkpt>
      <trkpt lat="59.333768490481" lon="18.016307568457">
        <ele>70.8</ele>
        <time>2019-09-16T16:37:53Z</time>
      </trkpt>
      <trkpt lat="59.333883909244" lon="18.016107241047">
        <ele>69</ele>
        <time>2019-09-16T16:37:56Z</time>
      </trkpt>
      <trkpt lat="59.3341206141" lon="18.015636848819">
        <ele>70.4</ele>
        <time>2019-09-16T16:38:02Z</time>
      </trkpt>
      <trkpt lat="59.334200996521" lon="18.01547415614">
        <ele>71.6</ele>
        <time>2019-09-16T16:38:04Z</time>
      </trkpt>
      <trkpt lat="59.334605758472" lon="18.014751049627">
        <ele>71.2</ele>
        <time>2019-09-16T16:38:14Z</time>
      </trkpt>
      <trkpt lat="59.334779934354" lon="18.014366739512">
        <ele>72.6</ele>
        <time>2019-09-16T16:38:19Z</time>
      </trkpt>
      <trkpt lat="59.335205148141" lon="18.01369467877">
        <ele>72.2</ele>
        <time>2019-09-16T16:38:31Z</time>
      </trkpt>
      <trkpt lat="59.33523624499" lon="18.01361169796">
        <ele>72.2</ele>
        <time>2019-09-16T16:38:32Z</time>
      </trkpt>
      <trkpt lat="59.335301037077" lon="18.013576996894">
        <ele>72.2</ele>
        <time>2019-09-16T16:38:34Z</time>
      </trkpt>
      <trkpt lat="59.335448893793" lon="18.013715801158">
        <ele>73</ele>
        <time>2019-09-16T16:38:39Z</time>
      </trkpt>
      <trkpt lat="59.335531371689" lon="18.013760141409">
        <ele>74</ele>
        <time>2019-09-16T16:38:41Z</time>
      </trkpt>
      <trkpt lat="59.33566372189" lon="18.013866004806">
        <ele>75.2</ele>
        <time>2019-09-16T16:38:45Z</time>
      </trkpt>
      <trkpt lat="59.33574167356" lon="18.01398469251">
        <ele>76.4</ele>
        <time>2019-09-16T16:38:48Z</time>
      </trkpt>
      <trkpt lat="59.33579950867" lon="18.014084269482">
        <ele>77.8</ele>
        <time>2019-09-16T16:38:50Z</time>
      </trkpt>
      <trkpt lat="59.335859690712" lon="18.014175716011">
        <ele>79</ele>
        <time>2019-09-16T16:38:52Z</time>
      </trkpt>
      <trkpt lat="59.336158337809" lon="18.014642001108">
        <ele>80</ele>
        <time>2019-09-16T16:39:01Z</time>
      </trkpt>
      <trkpt lat="59.336290520372" lon="18.014870575521">
        <ele>81</ele>
        <time>2019-09-16T16:39:05Z</time>
      </trkpt>
      <trkpt lat="59.336431923025" lon="18.015073836596">
        <ele>82.2</ele>
        <time>2019-09-16T16:39:09Z</time>
      </trkpt>
      <trkpt lat="59.336486740651" lon="18.015222782959">
        <ele>83.2</ele>
        <time>2019-09-16T16:39:11Z</time>
      </trkpt>
      <trkpt lat="59.336579360646" lon="18.015520088952">
        <ele>84.2</ele>
        <time>2019-09-16T16:39:15Z</time>
      </trkpt>
      <trkpt lat="59.336690588459" lon="18.015822256447">
        <ele>85.6</ele>
        <time>2019-09-16T16:39:20Z</time>
      </trkpt>
      <trkpt lat="59.336830817646" lon="18.016188210201">
        <ele>86.8</ele>
        <time>2019-09-16T16:39:26Z</time>
      </trkpt>
      <trkpt lat="59.336912457352" lon="18.016328523207">
        <ele>88</ele>
        <time>2019-09-16T16:39:29Z</time>
      </trkpt>
      <trkpt lat="59.336963586942" lon="18.016438409916">
        <ele>88.8</ele>
        <time>2019-09-16T16:39:31Z</time>
      </trkpt>
      <trkpt lat="59.337024774812" lon="18.016589870849">
        <ele>89.2</ele>
        <time>2019-09-16T16:39:33Z</time>
      </trkpt>
      <trkpt lat="59.337210517716" lon="18.016668995985">
        <ele>89.4</ele>
        <time>2019-09-16T16:39:40Z</time>
      </trkpt>
      <trkpt lat="59.337561551688" lon="18.015847402147">
        <ele>88.6</ele>
        <time>2019-09-16T16:39:53Z</time>
      </trkpt>
      <trkpt lat="59.337587787035" lon="18.015762661138">
        <ele>88.6</ele>
        <time>2019-09-16T16:39:54Z</time>
      </trkpt>
      <trkpt lat="59.33770136178" lon="18.015305093217">
        <ele>88.2</ele>
        <time>2019-09-16T16:39:59Z</time>
      </trkpt>
      <trkpt lat="59.337807728091" lon="18.015005105016">
        <ele>87</ele>
        <time>2019-09-16T16:40:02Z</time>
      </trkpt>
      <trkpt lat="59.337921721931" lon="18.014684832617">
        <ele>85.8</ele>
        <time>2019-09-16T16:40:05Z</time>
      </trkpt>
      <trkpt lat="59.338187176704" lon="18.014302785615">
        <ele>84.6</ele>
        <time>2019-09-16T16:40:08Z</time>
      </trkpt>
      <trkpt lat="59.338316425602" lon="18.014100446549">
        <ele>83.4</ele>
        <time>2019-09-16T16:40:10Z</time>
      </trkpt>
      <trkpt lat="59.338420025886" lon="18.013935658395">
        <ele>82.8</ele>
        <time>2019-09-16T16:40:12Z</time>
      </trkpt>
      <trkpt lat="59.338488841285" lon="18.013824346763">
        <ele>82</ele>
        <time>2019-09-16T16:40:14Z</time>
      </trkpt>
      <trkpt lat="59.33856134472" lon="18.013842786943">
        <ele>81.2</ele>
        <time>2019-09-16T16:40:16Z</time>
      </trkpt>
      <trkpt lat="59.338607948084" lon="18.013878326199">
        <ele>80.8</ele>
        <time>2019-09-16T16:40:17Z</time>
      </trkpt>
      <trkpt lat="59.338654886724" lon="18.01393104835">
        <ele>80.4</ele>
        <time>2019-09-16T16:40:18Z</time>
      </trkpt>
      <trkpt lat="59.338739543914" lon="18.014065829302">
        <ele>79.8</ele>
        <time>2019-09-16T16:40:20Z</time>
      </trkpt>
      <trkpt lat="59.339166853176" lon="18.014816596085">
        <ele>78.6</ele>
        <time>2019-09-16T16:40:29Z</time>
      </trkpt>
      <trkpt lat="59.339201218966" lon="18.014891111176">
        <ele>78</ele>
        <time>2019-09-16T16:40:30Z</time>
      </trkpt>
      <trkpt lat="59.339228711598" lon="18.014967973199">
        <ele>77.2</ele>
        <time>2019-09-16T16:40:31Z</time>
      </trkpt>
      <trkpt lat="59.339250755995" lon="18.01503578277">
        <ele>76.4</ele>
        <time>2019-09-16T16:40:32Z</time>
      </trkpt>
      <trkpt lat="59.339268525623" lon="18.015098311744">
        <ele>75.8</ele>
        <time>2019-09-16T16:40:33Z</time>
      </trkpt>
      <trkpt lat="59.339294677151" lon="18.015209791014">
        <ele>74.6</ele>
        <time>2019-09-16T16:40:35Z</time>
      </trkpt>
      <trkpt lat="59.339330970778" lon="18.015270727427">
        <ele>73.6</ele>
        <time>2019-09-16T16:40:37Z</time>
      </trkpt>
      <trkpt lat="59.339450748129" lon="18.015487231904">
        <ele>72.4</ele>
        <time>2019-09-16T16:40:41Z</time>
      </trkpt>
      <trkpt lat="59.339584439434" lon="18.015250610867">
        <ele>71.2</ele>
        <time>2019-09-16T16:40:44Z</time>
      </trkpt>
      <trkpt lat="59.33975492728" lon="18.014925309328">
        <ele>70.4</ele>
        <time>2019-09-16T16:40:47Z</time>
      </trkpt>
      <trkpt lat="59.339862467057" lon="18.014682569504">
        <ele>70.4</ele>
        <time>2019-09-16T16:40:49Z</time>
      </trkpt>
      <trkpt lat="59.340038403138" lon="18.014116036883">
        <ele>70</ele>
        <time>2019-09-16T16:40:53Z</time>
      </trkpt>
      <trkpt lat="59.340136639006" lon="18.013714460054">
        <ele>69</ele>
        <time>2019-09-16T16:40:56Z</time>
      </trkpt>
      <trkpt lat="59.340294470183" lon="18.013018929992">
        <ele>69</ele>
        <time>2019-09-16T16:41:02Z</time>
      </trkpt>
      <trkpt lat="59.340351131827" lon="18.012875264226">
        <ele>68</ele>
        <time>2019-09-16T16:41:04Z</time>
      </trkpt>
      <trkpt lat="59.340387090178" lon="18.01285648877">
        <ele>67.8</ele>
        <time>2019-09-16T16:41:05Z</time>
      </trkpt>
      <trkpt lat="59.340434196456" lon="18.012865541222">
        <ele>67.6</ele>
        <time>2019-09-16T16:41:06Z</time>
      </trkpt>
      <trkpt lat="59.340662184136" lon="18.012968387135">
        <ele>69.2</ele>
        <time>2019-09-16T16:41:10Z</time>
      </trkpt>
      <trkpt lat="59.34083535419" lon="18.013028485358">
        <ele>70.6</ele>
        <time>2019-09-16T16:41:13Z</time>
      </trkpt>
      <trkpt lat="59.340965525097" lon="18.013018678535">
        <ele>71.4</ele>
        <time>2019-09-16T16:41:16Z</time>
      </trkpt>
      <trkpt lat="59.341070131209" lon="18.012776357806">
        <ele>70.2</ele>
        <time>2019-09-16T16:41:20Z</time>
      </trkpt>
      <trkpt lat="59.341109107044" lon="18.01261676643">
        <ele>70.4</ele>
        <time>2019-09-16T16:41:22Z</time>
      </trkpt>
      <trkpt lat="59.341264088375" lon="18.011605825471">
        <ele>70</ele>
        <time>2019-09-16T16:41:33Z</time>
      </trkpt>
      <trkpt lat="59.341317648716" lon="18.011453610167">
        <ele>69.4</ele>
        <time>2019-09-16T16:41:35Z</time>
      </trkpt>
      <trkpt lat="59.341563322205" lon="18.010897387283">
        <ele>68.8</ele>
        <time>2019-09-16T16:41:42Z</time>
      </trkpt>
      <trkpt lat="59.341698186976" lon="18.010702843384">
        <ele>68.2</ele>
        <time>2019-09-16T16:41:45Z</time>
      </trkpt>
      <trkpt lat="59.341970095812" lon="18.01041987044">
        <ele>67.4</ele>
        <time>2019-09-16T16:41:51Z</time>
      </trkpt>
      <trkpt lat="59.341995744426" lon="18.010374440542">
        <ele>67.4</ele>
        <time>2019-09-16T16:41:52Z</time>
      </trkpt>
      <trkpt lat="59.342179308036" lon="18.010008905883">
        <ele>67.6</ele>
        <time>2019-09-16T16:41:56Z</time>
      </trkpt>
      <trkpt lat="59.342276370438" lon="18.009885021401">
        <ele>67.6</ele>
        <time>2019-09-16T16:41:58Z</time>
      </trkpt>
      <trkpt lat="59.342381479464" lon="18.00977614052">
        <ele>67.6</ele>
        <time>2019-09-16T16:42:00Z</time>
      </trkpt>
      <trkpt lat="59.342605360013" lon="18.009590229978">
        <ele>67</ele>
        <time>2019-09-16T16:42:05Z</time>
      </trkpt>
      <trkpt lat="59.342678198724" lon="18.009605904131">
        <ele>65.8</ele>
        <time>2019-09-16T16:42:07Z</time>
      </trkpt>
      <trkpt lat="59.343147501305" lon="18.009379006098">
        <ele>66</ele>
        <time>2019-09-16T16:42:17Z</time>
      </trkpt>
      <trkpt lat="59.343335004408" lon="18.008940632728">
        <ele>66</ele>
        <time>2019-09-16T16:42:21Z</time>
      </trkpt>
      <trkpt lat="59.343507252453" lon="18.008473760898">
        <ele>64.6</ele>
        <time>2019-09-16T16:42:25Z</time>
      </trkpt>
      <trkpt lat="59.343648990382" lon="18.008167150996">
        <ele>63.4</ele>
        <time>2019-09-16T16:42:28Z</time>
      </trkpt>
      <trkpt lat="59.344143438663" lon="18.007600702194">
        <ele>64.2</ele>
        <time>2019-09-16T16:42:38Z</time>
      </trkpt>
      <trkpt lat="59.344240836341" lon="18.007533311718">
        <ele>64.2</ele>
        <time>2019-09-16T16:42:40Z</time>
      </trkpt>
      <trkpt lat="59.344693710398" lon="18.007430717262">
        <ele>64.4</ele>
        <time>2019-09-16T16:42:52Z</time>
      </trkpt>
      <trkpt lat="59.344830335368" lon="18.007448235433">
        <ele>64.6</ele>
        <time>2019-09-16T16:42:55Z</time>
      </trkpt>
      <trkpt lat="59.345232415111" lon="18.007713606387">
        <ele>65.4</ele>
        <time>2019-09-16T16:43:02Z</time>
      </trkpt>
      <trkpt lat="59.345757792603" lon="18.008159523467">
        <ele>65.4</ele>
        <time>2019-09-16T16:43:10Z</time>
      </trkpt>
      <trkpt lat="59.345972955976" lon="18.00832020449">
        <ele>64.4</ele>
        <time>2019-09-16T16:43:13Z</time>
      </trkpt>
      <trkpt lat="59.346324911957" lon="18.008578031734">
        <ele>65.4</ele>
        <time>2019-09-16T16:43:18Z</time>
      </trkpt>
      <trkpt lat="59.346589612359" lon="18.008776682764">
        <ele>66.2</ele>
        <time>2019-09-16T16:43:22Z</time>
      </trkpt>
      <trkpt lat="59.346839895893" lon="18.008987236092">
        <ele>66.6</ele>
        <time>2019-09-16T16:43:26Z</time>
      </trkpt>
      <trkpt lat="59.347163437233" lon="18.009219163265">
        <ele>67.8</ele>
        <time>2019-09-16T16:43:31Z</time>
      </trkpt>
      <trkpt lat="59.347493264998" lon="18.009360817375">
        <ele>68</ele>
        <time>2019-09-16T16:43:36Z</time>
      </trkpt>
      <trkpt lat="59.347618322946" lon="18.009366517067">
        <ele>68.2</ele>
        <time>2019-09-16T16:43:38Z</time>
      </trkpt>
      <trkpt lat="59.348131546683" lon="18.009098966819">
        <ele>69</ele>
        <time>2019-09-16T16:43:47Z</time>
      </trkpt>
      <trkpt lat="59.348318043958" lon="18.00883485315">
        <ele>70</ele>
        <time>2019-09-16T16:43:51Z</time>
      </trkpt>
      <trkpt lat="59.348353583214" lon="18.008763187905">
        <ele>70.2</ele>
        <time>2019-09-16T16:43:52Z</time>
      </trkpt>
      <trkpt lat="59.34844444301" lon="18.008552886034">
        <ele>71.2</ele>
        <time>2019-09-16T16:43:55Z</time>
      </trkpt>
      <trkpt lat="59.348675531993" lon="18.008704682243">
        <ele>71.4</ele>
        <time>2019-09-16T16:44:01Z</time>
      </trkpt>
      <trkpt lat="59.348713250543" lon="18.008880283048">
        <ele>71.6</ele>
        <time>2019-09-16T16:44:03Z</time>
      </trkpt>
      <trkpt lat="59.348768990178" lon="18.009135176627">
        <ele>72.4</ele>
        <time>2019-09-16T16:44:06Z</time>
      </trkpt>
      <trkpt lat="59.348782987951" lon="18.009379509012">
        <ele>73.8</ele>
        <time>2019-09-16T16:44:09Z</time>
      </trkpt>
      <trkpt lat="59.348798075371" lon="18.009465926401">
        <ele>74.2</ele>
        <time>2019-09-16T16:44:10Z</time>
      </trkpt>
      <trkpt lat="59.348842918536" lon="18.009668684562">
        <ele>74.8</ele>
        <time>2019-09-16T16:44:12Z</time>
      </trkpt>
      <trkpt lat="59.348864292381" lon="18.009935648077">
        <ele>74.4</ele>
        <time>2019-09-16T16:44:14Z</time>
      </trkpt>
      <trkpt lat="59.349005359758" lon="18.010532606995">
        <ele>74.6</ele>
        <time>2019-09-16T16:44:20Z</time>
      </trkpt>
      <trkpt lat="59.349028326164" lon="18.010629837035">
        <ele>74.8</ele>
        <time>2019-09-16T16:44:21Z</time>
      </trkpt>
      <trkpt lat="59.349086915645" lon="18.010810047885">
        <ele>75.6</ele>
        <time>2019-09-16T16:44:23Z</time>
      </trkpt>
      <trkpt lat="59.349106696929" lon="18.010914234902">
        <ele>76</ele>
        <time>2019-09-16T16:44:24Z</time>
      </trkpt>
      <trkpt lat="59.349157407424" lon="18.011133253949">
        <ele>76.2</ele>
        <time>2019-09-16T16:44:26Z</time>
      </trkpt>
      <trkpt lat="59.349240974967" lon="18.011314302989">
        <ele>76</ele>
        <time>2019-09-16T16:44:28Z</time>
      </trkpt>
      <trkpt lat="59.34944943282" lon="18.011707246461">
        <ele>75</ele>
        <time>2019-09-16T16:44:33Z</time>
      </trkpt>
      <trkpt lat="59.349712456842" lon="18.012126257642">
        <ele>76</ele>
        <time>2019-09-16T16:44:39Z</time>
      </trkpt>
      <trkpt lat="59.349914544451" lon="18.012296996945">
        <ele>77</ele>
        <time>2019-09-16T16:44:43Z</time>
      </trkpt>
      <trkpt lat="59.350018060916" lon="18.012330776002">
        <ele>77.2</ele>
        <time>2019-09-16T16:44:45Z</time>
      </trkpt>
      <trkpt lat="59.350277983635" lon="18.012327926156">
        <ele>78.2</ele>
        <time>2019-09-16T16:44:50Z</time>
      </trkpt>
      <trkpt lat="59.350372866743" lon="18.012302026085">
        <ele>79.4</ele>
        <time>2019-09-16T16:44:52Z</time>
      </trkpt>
      <trkpt lat="59.350558022914" lon="18.012186104408">
        <ele>80.6</ele>
        <time>2019-09-16T16:44:56Z</time>
      </trkpt>
      <trkpt lat="59.350826914266" lon="18.0119235833">
        <ele>81.6</ele>
        <time>2019-09-16T16:45:02Z</time>
      </trkpt>
      <trkpt lat="59.351014585007" lon="18.011744797373">
        <ele>81.8</ele>
        <time>2019-09-16T16:45:06Z</time>
      </trkpt>
      <trkpt lat="59.35126076141" lon="18.011434750892">
        <ele>81.4</ele>
        <time>2019-09-16T16:45:11Z</time>
      </trkpt>
      <trkpt lat="59.35158933189" lon="18.011334922463">
        <ele>81</ele>
        <time>2019-09-16T16:45:17Z</time>
      </trkpt>
      <trkpt lat="59.352152763208" lon="18.011293767334">
        <ele>81.6</ele>
        <time>2019-09-16T16:45:25Z</time>
      </trkpt>
      <trkpt lat="59.352343786709" lon="18.011249594721">
        <ele>81.8</ele>
        <time>2019-09-16T16:45:27Z</time>
      </trkpt>
      <trkpt lat="59.352487703932" lon="18.011222437365">
        <ele>81.6</ele>
        <time>2019-09-16T16:45:29Z</time>
      </trkpt>
      <trkpt lat="59.352686774057" lon="18.011244397943">
        <ele>81.4</ele>
        <time>2019-09-16T16:45:32Z</time>
      </trkpt>
      <trkpt lat="59.352798588603" lon="18.011394769229">
        <ele>81.4</ele>
        <time>2019-09-16T16:45:34Z</time>
      </trkpt>
      <trkpt lat="59.353187676401" lon="18.011535920425">
        <ele>81.2</ele>
        <time>2019-09-16T16:45:40Z</time>
      </trkpt>
      <trkpt lat="59.353296389644" lon="18.011602305073">
        <ele>80.6</ele>
        <time>2019-09-16T16:45:42Z</time>
      </trkpt>
      <trkpt lat="59.353345088483" lon="18.011599874322">
        <ele>80.2</ele>
        <time>2019-09-16T16:45:43Z</time>
      </trkpt>
      <trkpt lat="59.353365121224" lon="18.01152711943">
        <ele>80</ele>
        <time>2019-09-16T16:45:44Z</time>
      </trkpt>
      <trkpt lat="59.353427650198" lon="18.011392673754">
        <ele>80</ele>
        <time>2019-09-16T16:45:46Z</time>
      </trkpt>
      <trkpt lat="59.353467548042" lon="18.01125386949">
        <ele>81.2</ele>
        <time>2019-09-16T16:45:48Z</time>
      </trkpt>
      <trkpt lat="59.353514570501" lon="18.011091092992">
        <ele>82.2</ele>
        <time>2019-09-16T16:45:51Z</time>
      </trkpt>
      <trkpt lat="59.353534351785" lon="18.011094026657">
        <ele>82.4</ele>
        <time>2019-09-16T16:45:52Z</time>
      </trkpt>
      <trkpt lat="59.35383232833" lon="18.011593671716">
        <ele>81.6</ele>
        <time>2019-09-16T16:46:01Z</time>
      </trkpt>
      <trkpt lat="59.353838782393" lon="18.011676820164">
        <ele>81.2</ele>
        <time>2019-09-16T16:46:02Z</time>
      </trkpt>
      <trkpt lat="59.35376275856" lon="18.011945208602">
        <ele>80.2</ele>
        <time>2019-09-16T16:46:05Z</time>
      </trkpt>
      <trkpt lat="59.353715568463" lon="18.012158611776">
        <ele>79.6</ele>
        <time>2019-09-16T16:46:08Z</time>
      </trkpt>
      <trkpt lat="59.353768542071" lon="18.012329351079">
        <ele>79.4</ele>
        <time>2019-09-16T16:46:10Z</time>
      </trkpt>
      <trkpt lat="59.353874489287" lon="18.012527750652">
        <ele>79.2</ele>
        <time>2019-09-16T16:46:12Z</time>
      </trkpt>
      <trkpt lat="59.353990494783" lon="18.012734448306">
        <ele>78.4</ele>
        <time>2019-09-16T16:46:14Z</time>
      </trkpt>
      <trkpt lat="59.354054197223" lon="18.012756157427">
        <ele>78</ele>
        <time>2019-09-16T16:46:15Z</time>
      </trkpt>
      <trkpt lat="59.354111697057" lon="18.012753559038">
        <ele>77.8</ele>
        <time>2019-09-16T16:46:16Z</time>
      </trkpt>
      <trkpt lat="59.35423046858" lon="18.012754313409">
        <ele>77.2</ele>
        <time>2019-09-16T16:46:18Z</time>
      </trkpt>
      <trkpt lat="59.354288806604" lon="18.012779542928">
        <ele>76.6</ele>
        <time>2019-09-16T16:46:19Z</time>
      </trkpt>
      <trkpt lat="59.354400537331" lon="18.012898482089">
        <ele>74.6</ele>
        <time>2019-09-16T16:46:21Z</time>
      </trkpt>
      <trkpt lat="59.354455690233" lon="18.012920442667">
        <ele>73.8</ele>
        <time>2019-09-16T16:46:22Z</time>
      </trkpt>
      <trkpt lat="59.354492235317" lon="18.012986492039">
        <ele>73.4</ele>
        <time>2019-09-16T16:46:23Z</time>
      </trkpt>
      <trkpt lat="59.354547974952" lon="18.01298054089">
        <ele>72.8</ele>
        <time>2019-09-16T16:46:24Z</time>
      </trkpt>
      <trkpt lat="59.354847711696" lon="18.012789852665">
        <ele>72.2</ele>
        <time>2019-09-16T16:46:28Z</time>
      </trkpt>
      <trkpt lat="59.355077543394" lon="18.012628584909">
        <ele>70.4</ele>
        <time>2019-09-16T16:46:31Z</time>
      </trkpt>
      <trkpt lat="59.355219951875" lon="18.012556668207">
        <ele>68.8</ele>
        <time>2019-09-16T16:46:33Z</time>
      </trkpt>
      <trkpt lat="59.355287761446" lon="18.012509059015">
        <ele>68.4</ele>
        <time>2019-09-16T16:46:34Z</time>
      </trkpt>
      <trkpt lat="59.35539890544" lon="18.012338152074">
        <ele>68.6</ele>
        <time>2019-09-16T16:46:36Z</time>
      </trkpt>
      <trkpt lat="59.355462356423" lon="18.012139417225">
        <ele>69.8</ele>
        <time>2019-09-16T16:46:38Z</time>
      </trkpt>
      <trkpt lat="59.355512731642" lon="18.01195459633">
        <ele>71</ele>
        <time>2019-09-16T16:46:40Z</time>
      </trkpt>
      <trkpt lat="59.355543325577" lon="18.011863736534">
        <ele>71.6</ele>
        <time>2019-09-16T16:46:41Z</time>
      </trkpt>
      <trkpt lat="59.355715322165" lon="18.011518569892">
        <ele>70.6</ele>
        <time>2019-09-16T16:46:48Z</time>
      </trkpt>
      <trkpt lat="59.355728900843" lon="18.011561233763">
        <ele>69.8</ele>
        <time>2019-09-16T16:46:50Z</time>
      </trkpt>
      <trkpt lat="59.35568640461" lon="18.011644717487">
        <ele>69</ele>
        <time>2019-09-16T16:46:52Z</time>
      </trkpt>
      <trkpt lat="59.355623791817" lon="18.011808667451">
        <ele>68.6</ele>
        <time>2019-09-16T16:46:54Z</time>
      </trkpt>
      <trkpt lat="59.355487083028" lon="18.012251986142">
        <ele>67.4</ele>
        <time>2019-09-16T16:46:58Z</time>
      </trkpt>
      <trkpt lat="59.355233279096" lon="18.013212468063">
        <ele>67.2</ele>
        <time>2019-09-16T16:47:07Z</time>
      </trkpt>
      <trkpt lat="59.355198661849" lon="18.0134909986">
        <ele>67.4</ele>
        <time>2019-09-16T16:47:09Z</time>
      </trkpt>
      <trkpt lat="59.355100174524" lon="18.013913865455">
        <ele>67.6</ele>
        <time>2019-09-16T16:47:12Z</time>
      </trkpt>
      <trkpt lat="59.354755846072" lon="18.014849117857">
        <ele>67.6</ele>
        <time>2019-09-16T16:47:19Z</time>
      </trkpt>
      <trkpt lat="59.354645037354" lon="18.015181963106">
        <ele>68.2</ele>
        <time>2019-09-16T16:47:22Z</time>
      </trkpt>
      <trkpt lat="59.354701447541" lon="18.015437778694">
        <ele>68.2</ele>
        <time>2019-09-16T16:47:25Z</time>
      </trkpt>
      <trkpt lat="59.354907390824" lon="18.015669035315">
        <ele>67.8</ele>
        <time>2019-09-16T16:47:29Z</time>
      </trkpt>
      <trkpt lat="59.355030269478" lon="18.015825273931">
        <ele>68.8</ele>
        <time>2019-09-16T16:47:32Z</time>
      </trkpt>
      <trkpt lat="59.355118866161" lon="18.015856873694">
        <ele>70.2</ele>
        <time>2019-09-16T16:47:35Z</time>
      </trkpt>
      <trkpt lat="59.35514912482" lon="18.015865926146">
        <ele>70.4</ele>
        <time>2019-09-16T16:47:36Z</time>
      </trkpt>
      <trkpt lat="59.355317684829" lon="18.016112102549">
        <ele>71.2</ele>
        <time>2019-09-16T16:47:41Z</time>
      </trkpt>
      <trkpt lat="59.355501080801" lon="18.016393482932">
        <ele>71.8</ele>
        <time>2019-09-16T16:47:47Z</time>
      </trkpt>
      <trkpt lat="59.355655978313" lon="18.016471853697">
        <ele>71.8</ele>
        <time>2019-09-16T16:47:51Z</time>
      </trkpt>
      <trkpt lat="59.355907267675" lon="18.016571430669">
        <ele>72.2</ele>
        <time>2019-09-16T16:47:57Z</time>
      </trkpt>
      <trkpt lat="59.356169704964" lon="18.016679892455">
        <ele>73</ele>
        <time>2019-09-16T16:48:03Z</time>
      </trkpt>
      <trkpt lat="59.356712516808" lon="18.016907796316">
        <ele>72.4</ele>
        <time>2019-09-16T16:48:12Z</time>
      </trkpt>
      <trkpt lat="59.357259603421" lon="18.017136203091">
        <ele>71.8</ele>
        <time>2019-09-16T16:48:20Z</time>
      </trkpt>
      <trkpt lat="59.357826890413" lon="18.01729889577">
        <ele>73</ele>
        <time>2019-09-16T16:48:28Z</time>
      </trkpt>
      <trkpt lat="59.357985056866" lon="18.017328819153">
        <ele>73.2</ele>
        <time>2019-09-16T16:48:30Z</time>
      </trkpt>
      <trkpt lat="59.358528371624" lon="18.017416410008">
        <ele>73.6</ele>
        <time>2019-09-16T16:48:38Z</time>
      </trkpt>
      <trkpt lat="59.358760214978" lon="18.017472484919">
        <ele>74.4</ele>
        <time>2019-09-16T16:48:42Z</time>
      </trkpt>
      <trkpt lat="59.359279222226" lon="18.017482291742">
        <ele>75.4</ele>
        <time>2019-09-16T16:48:48Z</time>
      </trkpt>
      <trkpt lat="59.359807868659" lon="18.0174975468">
        <ele>76.6</ele>
        <time>2019-09-16T16:48:55Z</time>
      </trkpt>
      <trkpt lat="59.360025881878" lon="18.017505844881">
        <ele>77.2</ele>
        <time>2019-09-16T16:48:59Z</time>
      </trkpt>
      <trkpt lat="59.360173403318" lon="18.017492182384">
        <ele>77.8</ele>
        <time>2019-09-16T16:49:02Z</time>
      </trkpt>
      <trkpt lat="59.360415053495" lon="18.017442980631">
        <ele>78</ele>
        <time>2019-09-16T16:49:07Z</time>
      </trkpt>
      <trkpt lat="59.360689309263" lon="18.017294872458">
        <ele>79.2</ele>
        <time>2019-09-16T16:49:14Z</time>
      </trkpt>
      <trkpt lat="59.360820821274" lon="18.017228068715">
        <ele>80.6</ele>
        <time>2019-09-16T16:49:18Z</time>
      </trkpt>
      <trkpt lat="59.360896258374" lon="18.017202168644">
        <ele>82</ele>
        <time>2019-09-16T16:49:20Z</time>
      </trkpt>
      <trkpt lat="59.36102735129" lon="18.017180040428">
        <ele>83.2</ele>
        <time>2019-09-16T16:49:23Z</time>
      </trkpt>
      <trkpt lat="59.361277634824" lon="18.017140310222">
        <ele>84.4</ele>
        <time>2019-09-16T16:49:28Z</time>
      </trkpt>
      <trkpt lat="59.361478465148" lon="18.017107956088">
        <ele>85.6</ele>
        <time>2019-09-16T16:49:32Z</time>
      </trkpt>
      <trkpt lat="59.361707877751" lon="18.017063867294">
        <ele>86.6</ele>
        <time>2019-09-16T16:49:37Z</time>
      </trkpt>
      <trkpt lat="59.362099647757" lon="18.016824144954">
        <ele>86.4</ele>
        <time>2019-09-16T16:49:45Z</time>
      </trkpt>
      <trkpt lat="59.36232067846" lon="18.016549470091">
        <ele>85.6</ele>
        <time>2019-09-16T16:49:49Z</time>
      </trkpt>
      <trkpt lat="59.362376669552" lon="18.016502028537">
        <ele>85.6</ele>
        <time>2019-09-16T16:49:50Z</time>
      </trkpt>
      <trkpt lat="59.362546822122" lon="18.016368253413">
        <ele>84.8</ele>
        <time>2019-09-16T16:49:53Z</time>
      </trkpt>
      <trkpt lat="59.362666096559" lon="18.016319386936">
        <ele>84.4</ele>
        <time>2019-09-16T16:49:55Z</time>
      </trkpt>
      <trkpt lat="59.36319407244" lon="18.016029624653">
        <ele>83.6</ele>
        <time>2019-09-16T16:50:03Z</time>
      </trkpt>
      <trkpt lat="59.363325584451" lon="18.015982350737">
        <ele>83.6</ele>
        <time>2019-09-16T16:50:05Z</time>
      </trkpt>
      <trkpt lat="59.36339691442" lon="18.016052758697">
        <ele>83.4</ele>
        <time>2019-09-16T16:50:07Z</time>
      </trkpt>
      <trkpt lat="59.363541586014" lon="18.016229700606">
        <ele>83</ele>
        <time>2019-09-16T16:50:11Z</time>
      </trkpt>
      <trkpt lat="59.363621633159" lon="18.016307065543">
        <ele>82.8</ele>
        <time>2019-09-16T16:50:13Z</time>
      </trkpt>
      <trkpt lat="59.363711990041" lon="18.016431536758">
        <ele>82.2</ele>
        <time>2019-09-16T16:50:16Z</time>
      </trkpt>
      <trkpt lat="59.363723557063" lon="18.016479565045">
        <ele>82</ele>
        <time>2019-09-16T16:50:17Z</time>
      </trkpt>
      <trkpt lat="59.363736213732" lon="18.016593894161">
        <ele>81</ele>
        <time>2019-09-16T16:50:20Z</time>
      </trkpt>
      <trkpt lat="59.363738141569" lon="18.01668617888">
        <ele>80.4</ele>
        <time>2019-09-16T16:50:22Z</time>
      </trkpt>
      <trkpt lat="59.363798072154" lon="18.016669079804">
        <ele>80</ele>
        <time>2019-09-16T16:50:26Z</time>
      </trkpt>
      <trkpt lat="59.363890859787" lon="18.016616022377">
        <ele>80</ele>
        <time>2019-09-16T16:50:28Z</time>
      </trkpt>
      <trkpt lat="59.363956406245" lon="18.016854403613">
        <ele>79.8</ele>
        <time>2019-09-16T16:50:30Z</time>
      </trkpt>
      <trkpt lat="59.364052295181" lon="18.016675785324">
        <ele>80.2</ele>
        <time>2019-09-16T16:50:33Z</time>
      </trkpt>
      <trkpt lat="59.364198978431" lon="18.016089052324">
        <ele>78.8</ele>
        <time>2019-09-16T16:50:40Z</time>
      </trkpt>
      <trkpt lat="59.364327221501" lon="18.015551940172">
        <ele>78</ele>
        <time>2019-09-16T16:50:44Z</time>
      </trkpt>
      <trkpt lat="59.364346667509" lon="18.015322527569">
        <ele>77.6</ele>
        <time>2019-09-16T16:50:46Z</time>
      </trkpt>
      <trkpt lat="59.364348343889" lon="18.015072411673">
        <ele>76.4</ele>
        <time>2019-09-16T16:50:49Z</time>
      </trkpt>
      <trkpt lat="59.364382374403" lon="18.014840149224">
        <ele>75.8</ele>
        <time>2019-09-16T16:50:52Z</time>
      </trkpt>
      <trkpt lat="59.364416237279" lon="18.014711654697">
        <ele>75.4</ele>
        <time>2019-09-16T16:50:54Z</time>
      </trkpt>
      <trkpt lat="59.364412046329" lon="18.01467619926">
        <ele>75.2</ele>
        <time>2019-09-16T16:50:55Z</time>
      </trkpt>
      <trkpt lat="59.364519083192" lon="18.014589446595">
        <ele>74.4</ele>
        <time>2019-09-16T16:51:00Z</time>
      </trkpt>
      <trkpt lat="59.364549090394" lon="18.014682318047">
        <ele>74.2</ele>
        <time>2019-09-16T16:51:01Z</time>
      </trkpt>
      <trkpt lat="59.364693091436" lon="18.014857499757">
        <ele>74</ele>
        <time>2019-09-16T16:51:03Z</time>
      </trkpt>
      <trkpt lat="59.364844720007" lon="18.01506847218">
        <ele>73.4</ele>
        <time>2019-09-16T16:51:06Z</time>
      </trkpt>
      <trkpt lat="59.3649073328" lon="18.015065622334">
        <ele>73.2</ele>
        <time>2019-09-16T16:51:07Z</time>
      </trkpt>
      <trkpt lat="59.365404044194" lon="18.014625404946">
        <ele>73</ele>
        <time>2019-09-16T16:51:21Z</time>
      </trkpt>
      <trkpt lat="59.366133437132" lon="18.013701049014">
        <ele>73.4</ele>
        <time>2019-09-16T16:51:35Z</time>
      </trkpt>
      <trkpt lat="59.366482207991" lon="18.013252198269">
        <ele>73.6</ele>
        <time>2019-09-16T16:51:41Z</time>
      </trkpt>
      <trkpt lat="59.366942290482" lon="18.012586926866">
        <ele>73.8</ele>
        <time>2019-09-16T16:51:49Z</time>
      </trkpt>
      <trkpt lat="59.367366414622" lon="18.01190095217">
        <ele>72.6</ele>
        <time>2019-09-16T16:51:57Z</time>
      </trkpt>
      <trkpt lat="59.36742693194" lon="18.011808415994">
        <ele>72.2</ele>
        <time>2019-09-16T16:51:58Z</time>
      </trkpt>
      <trkpt lat="59.367688279582" lon="18.011461908248">
        <ele>71</ele>
        <time>2019-09-16T16:52:02Z</time>
      </trkpt>
      <trkpt lat="59.367882572024" lon="18.011173487069">
        <ele>69.8</ele>
        <time>2019-09-16T16:52:06Z</time>
      </trkpt>
      <trkpt lat="59.367963541178" lon="18.011100396901">
        <ele>67.8</ele>
        <time>2019-09-16T16:52:08Z</time>
      </trkpt>
      <trkpt lat="59.368031518387" lon="18.011101821824">
        <ele>66.2</ele>
        <time>2019-09-16T16:52:10Z</time>
      </trkpt>
      <trkpt lat="59.368123132554" lon="18.011128057171">
        <ele>66</ele>
        <time>2019-09-16T16:52:12Z</time>
      </trkpt>
      <trkpt lat="59.368208879391" lon="18.011070892613">
        <ele>66.2</ele>
        <time>2019-09-16T16:52:14Z</time>
      </trkpt>
      <trkpt lat="59.368367297301" lon="18.010623718248">
        <ele>67.2</ele>
        <time>2019-09-16T16:52:20Z</time>
      </trkpt>
      <trkpt lat="59.368390682802" lon="18.010546353311">
        <ele>67.6</ele>
        <time>2019-09-16T16:52:21Z</time>
      </trkpt>
      <trkpt lat="59.368472909241" lon="18.010341499675">
        <ele>68.4</ele>
        <time>2019-09-16T16:52:24Z</time>
      </trkpt>
      <trkpt lat="59.36851909351" lon="18.01019188276">
        <ele>68.2</ele>
        <time>2019-09-16T16:52:26Z</time>
      </trkpt>
      <trkpt lat="59.368557901707" lon="18.009975043007">
        <ele>69</ele>
        <time>2019-09-16T16:52:29Z</time>
      </trkpt>
      <trkpt lat="59.368573659679" lon="18.009906730522">
        <ele>69.4</ele>
        <time>2019-09-16T16:52:30Z</time>
      </trkpt>
      <trkpt lat="59.368700477826" lon="18.009594923842">
        <ele>70.2</ele>
        <time>2019-09-16T16:52:34Z</time>
      </trkpt>
      <trkpt lat="59.369047237029" lon="18.008990337395">
        <ele>68.4</ele>
        <time>2019-09-16T16:52:41Z</time>
      </trkpt>
      <trkpt lat="59.369107251433" lon="18.008928311335">
        <ele>67.8</ele>
        <time>2019-09-16T16:52:42Z</time>
      </trkpt>
      <trkpt lat="59.369169445131" lon="18.008872655519">
        <ele>67.4</ele>
        <time>2019-09-16T16:52:43Z</time>
      </trkpt>
      <trkpt lat="59.369629359984" lon="18.008650199893">
        <ele>66.4</ele>
        <time>2019-09-16T16:52:50Z</time>
      </trkpt>
      <trkpt lat="59.370030936813" lon="18.008492703992">
        <ele>65.6</ele>
        <time>2019-09-16T16:52:56Z</time>
      </trkpt>
      <trkpt lat="59.370586992059" lon="18.008227835952">
        <ele>65.4</ele>
        <time>2019-09-16T16:53:04Z</time>
      </trkpt>
      <trkpt lat="59.370656980924" lon="18.008190201221">
        <ele>65.2</ele>
        <time>2019-09-16T16:53:05Z</time>
      </trkpt>
      <trkpt lat="59.371246060856" lon="18.007997417521">
        <ele>64.4</ele>
        <time>2019-09-16T16:53:13Z</time>
      </trkpt>
      <trkpt lat="59.371762721172" lon="18.007788456754">
        <ele>66.2</ele>
        <time>2019-09-16T16:53:20Z</time>
      </trkpt>
      <trkpt lat="59.372258342919" lon="18.007637582554">
        <ele>65.4</ele>
        <time>2019-09-16T16:53:27Z</time>
      </trkpt>
      <trkpt lat="59.372331433087" lon="18.007632553414">
        <ele>65.2</ele>
        <time>2019-09-16T16:53:28Z</time>
      </trkpt>
      <trkpt lat="59.372401924866" lon="18.007614951424">
        <ele>65.2</ele>
        <time>2019-09-16T16:53:29Z</time>
      </trkpt>
      <trkpt lat="59.372546428822" lon="18.007493665331">
        <ele>65.4</ele>
        <time>2019-09-16T16:53:31Z</time>
      </trkpt>
      <trkpt lat="59.372679784851" lon="18.007344383692">
        <ele>65.2</ele>
        <time>2019-09-16T16:53:33Z</time>
      </trkpt>
      <trkpt lat="59.372900061183" lon="18.007168363792">
        <ele>64.2</ele>
        <time>2019-09-16T16:53:36Z</time>
      </trkpt>
      <trkpt lat="59.37335964076" lon="18.006586408475">
        <ele>63.4</ele>
        <time>2019-09-16T16:53:43Z</time>
      </trkpt>
      <trkpt lat="59.373490817495" lon="18.006451627523">
        <ele>63</ele>
        <time>2019-09-16T16:53:45Z</time>
      </trkpt>
      <trkpt lat="59.374018290462" lon="18.006015098171">
        <ele>62.8</ele>
        <time>2019-09-16T16:53:53Z</time>
      </trkpt>
      <trkpt lat="59.374216606216" lon="18.005878724658">
        <ele>64.2</ele>
        <time>2019-09-16T16:53:56Z</time>
      </trkpt>
      <trkpt lat="59.374406037156" lon="18.005720474386">
        <ele>65.2</ele>
        <time>2019-09-16T16:53:59Z</time>
      </trkpt>
      <trkpt lat="59.374932336657" lon="18.005289980002">
        <ele>66.2</ele>
        <time>2019-09-16T16:54:08Z</time>
      </trkpt>
      <trkpt lat="59.375362328127" lon="18.004944561903">
        <ele>67.2</ele>
        <time>2019-09-16T16:54:16Z</time>
      </trkpt>
      <trkpt lat="59.375875551864" lon="18.004593192655">
        <ele>68.2</ele>
        <time>2019-09-16T16:54:26Z</time>
      </trkpt>
      <trkpt lat="59.376135139307" lon="18.0044134009">
        <ele>68.2</ele>
        <time>2019-09-16T16:54:31Z</time>
      </trkpt>
      <trkpt lat="59.376477120827" lon="18.004120118219">
        <ele>69.4</ele>
        <time>2019-09-16T16:54:38Z</time>
      </trkpt>
      <trkpt lat="59.376996714808" lon="18.003826164986">
        <ele>69.6</ele>
        <time>2019-09-16T16:54:49Z</time>
      </trkpt>
      <trkpt lat="59.377025380906" lon="18.003752571904">
        <ele>69.6</ele>
        <time>2019-09-16T16:54:50Z</time>
      </trkpt>
      <trkpt lat="59.37710467368" lon="18.003674536415">
        <ele>70</ele>
        <time>2019-09-16T16:54:52Z</time>
      </trkpt>
      <trkpt lat="59.377182792988" lon="18.003608989957">
        <ele>71</ele>
        <time>2019-09-16T16:54:54Z</time>
      </trkpt>
      <trkpt lat="59.377231910922" lon="18.003581413506">
        <ele>71.2</ele>
        <time>2019-09-16T16:54:55Z</time>
      </trkpt>
      <trkpt lat="59.37731841213" lon="18.003528775174">
        <ele>72</ele>
        <time>2019-09-16T16:54:57Z</time>
      </trkpt>
      <trkpt lat="59.377405248614" lon="18.003480830706">
        <ele>72.4</ele>
        <time>2019-09-16T16:54:59Z</time>
      </trkpt>
      <trkpt lat="59.377863990001" lon="18.003260135279">
        <ele>73.2</ele>
        <time>2019-09-16T16:55:08Z</time>
      </trkpt>
      <trkpt lat="59.377983683533" lon="18.003125605784">
        <ele>74.2</ele>
        <time>2019-09-16T16:55:11Z</time>
      </trkpt>
      <trkpt lat="59.378028275241" lon="18.003077409859">
        <ele>74.2</ele>
        <time>2019-09-16T16:55:12Z</time>
      </trkpt>
      <trkpt lat="59.378075465338" lon="18.00304296025">
        <ele>74.4</ele>
        <time>2019-09-16T16:55:13Z</time>
      </trkpt>
      <trkpt lat="59.37853378763" lon="18.002674911021">
        <ele>75</ele>
        <time>2019-09-16T16:55:22Z</time>
      </trkpt>
      <trkpt lat="59.379090178152" lon="18.002231424692">
        <ele>73.8</ele>
        <time>2019-09-16T16:55:31Z</time>
      </trkpt>
      <trkpt lat="59.379376000942" lon="18.002031516377">
        <ele>73</ele>
        <time>2019-09-16T16:55:35Z</time>
      </trkpt>
      <trkpt lat="59.379654112384" lon="18.001827081836">
        <ele>71.8</ele>
        <time>2019-09-16T16:55:39Z</time>
      </trkpt>
      <trkpt lat="59.380221315557" lon="18.001446459757">
        <ele>71.8</ele>
        <time>2019-09-16T16:55:47Z</time>
      </trkpt>
      <trkpt lat="59.380374369051" lon="18.001426259378">
        <ele>70.8</ele>
        <time>2019-09-16T16:55:49Z</time>
      </trkpt>
      <trkpt lat="59.380688103568" lon="18.00149314694">
        <ele>69.6</ele>
        <time>2019-09-16T16:55:53Z</time>
      </trkpt>
      <trkpt lat="59.380984990466" lon="18.001548132204">
        <ele>69</ele>
        <time>2019-09-16T16:55:57Z</time>
      </trkpt>
      <trkpt lat="59.381053638227" lon="18.001582078899">
        <ele>68.4</ele>
        <time>2019-09-16T16:55:58Z</time>
      </trkpt>
      <trkpt lat="59.381168302619" lon="18.001609403893">
        <ele>67.4</ele>
        <time>2019-09-16T16:56:00Z</time>
      </trkpt>
      <trkpt lat="59.381353794066" lon="18.001561962339">
        <ele>67</ele>
        <time>2019-09-16T16:56:03Z</time>
      </trkpt>
      <trkpt lat="59.381433254478" lon="18.001333220288">
        <ele>67.2</ele>
        <time>2019-09-16T16:56:05Z</time>
      </trkpt>
      <trkpt lat="59.381808093046" lon="18.00080583114">
        <ele>68.6</ele>
        <time>2019-09-16T16:56:12Z</time>
      </trkpt>
      <trkpt lat="59.382334811642" lon="18.000269138083">
        <ele>67.8</ele>
        <time>2019-09-16T16:56:21Z</time>
      </trkpt>
      <trkpt lat="59.382392395295" lon="18.000207698756">
        <ele>67.6</ele>
        <time>2019-09-16T16:56:22Z</time>
      </trkpt>
      <trkpt lat="59.382650809272" lon="17.999880804656">
        <ele>67.6</ele>
        <time>2019-09-16T16:56:27Z</time>
      </trkpt>
      <trkpt lat="59.382776118677" lon="17.999718111977">
        <ele>67.2</ele>
        <time>2019-09-16T16:56:29Z</time>
      </trkpt>
      <trkpt lat="59.382858764211" lon="17.999513509798">
        <ele>66.8</ele>
        <time>2019-09-16T16:56:31Z</time>
      </trkpt>
      <trkpt lat="59.382959849925" lon="17.999175216314">
        <ele>67.6</ele>
        <time>2019-09-16T16:56:34Z</time>
      </trkpt>
      <trkpt lat="59.383083147674" lon="17.998891572818">
        <ele>68.6</ele>
        <time>2019-09-16T16:56:37Z</time>
      </trkpt>
      <trkpt lat="59.383545074183" lon="17.998316574478">
        <ele>68.8</ele>
        <time>2019-09-16T16:56:46Z</time>
      </trkpt>
      <trkpt lat="59.383697792401" lon="17.998123036407">
        <ele>69.2</ele>
        <time>2019-09-16T16:56:49Z</time>
      </trkpt>
      <trkpt lat="59.383803069065" lon="17.998063441098">
        <ele>69.4</ele>
        <time>2019-09-16T16:56:51Z</time>
      </trkpt>
      <trkpt lat="59.383911195575" lon="17.998044330366">
        <ele>69.6</ele>
        <time>2019-09-16T16:56:53Z</time>
      </trkpt>
      <trkpt lat="59.383968024857" lon="17.998046174384">
        <ele>69.8</ele>
        <time>2019-09-16T16:56:54Z</time>
      </trkpt>
      <trkpt lat="59.384246471575" lon="17.998032847163">
        <ele>70.8</ele>
        <time>2019-09-16T16:56:59Z</time>
      </trkpt>
      <trkpt lat="59.384567330707" lon="17.998011473318">
        <ele>70</ele>
        <time>2019-09-16T16:57:05Z</time>
      </trkpt>
      <trkpt lat="59.3846215616" lon="17.998008958748">
        <ele>69.8</ele>
        <time>2019-09-16T16:57:06Z</time>
      </trkpt>
      <trkpt lat="59.385007464276" lon="17.997976520795">
        <ele>70.8</ele>
        <time>2019-09-16T16:57:13Z</time>
      </trkpt>
      <trkpt lat="59.385552371595" lon="17.997929917431">
        <ele>70.2</ele>
        <time>2019-09-16T16:57:24Z</time>
      </trkpt>
      <trkpt lat="59.385695869723" lon="17.997927738137">
        <ele>69.8</ele>
        <time>2019-09-16T16:57:27Z</time>
      </trkpt>
      <trkpt lat="59.385978926486" lon="17.997895467822">
        <ele>70.8</ele>
        <time>2019-09-16T16:57:33Z</time>
      </trkpt>
      <trkpt lat="59.386165759037" lon="17.997884319895">
        <ele>72</ele>
        <time>2019-09-16T16:57:37Z</time>
      </trkpt>
      <trkpt lat="59.386491647309" lon="17.997880296583">
        <ele>73</ele>
        <time>2019-09-16T16:57:44Z</time>
      </trkpt>
      <trkpt lat="59.386829186422" lon="17.997841572205">
        <ele>74.4</ele>
        <time>2019-09-16T16:57:51Z</time>
      </trkpt>
      <trkpt lat="59.387064131079" lon="17.99783444759">
        <ele>75.4</ele>
        <time>2019-09-16T16:57:56Z</time>
      </trkpt>
      <trkpt lat="59.387274013855" lon="17.997833777038">
        <ele>76.6</ele>
        <time>2019-09-16T16:58:01Z</time>
      </trkpt>
      <trkpt lat="59.387485992106" lon="17.998551770592">
        <ele>76.4</ele>
        <time>2019-09-16T16:58:15Z</time>
      </trkpt>
      <trkpt lat="59.387630412243" lon="17.998772298381">
        <ele>75.6</ele>
        <time>2019-09-16T16:58:19Z</time>
      </trkpt>
      <trkpt lat="59.387673579028" lon="17.998795516244">
        <ele>75.4</ele>
        <time>2019-09-16T16:58:20Z</time>
      </trkpt>
      <trkpt lat="59.387831661662" lon="17.998853770449">
        <ele>75.4</ele>
        <time>2019-09-16T16:58:23Z</time>
      </trkpt>
      <trkpt lat="59.387968202813" lon="17.998898529795">
        <ele>76.6</ele>
        <time>2019-09-16T16:58:25Z</time>
      </trkpt>
      <trkpt lat="59.388046154483" lon="17.998888136239">
        <ele>77.8</ele>
        <time>2019-09-16T16:58:27Z</time>
      </trkpt>
      <trkpt lat="59.38853758528" lon="17.998332080993">
        <ele>77.8</ele>
        <time>2019-09-16T16:58:38Z</time>
      </trkpt>
      <trkpt lat="59.388669935481" lon="17.998210124348">
        <ele>76.4</ele>
        <time>2019-09-16T16:58:40Z</time>
      </trkpt>
      <trkpt lat="59.388816534912" lon="17.998055394474">
        <ele>74.6</ele>
        <time>2019-09-16T16:58:42Z</time>
      </trkpt>
      <trkpt lat="59.389074278337" lon="17.997742665785">
        <ele>73.2</ele>
        <time>2019-09-16T16:58:45Z</time>
      </trkpt>
      <trkpt lat="59.389281395086" lon="17.997500261237">
        <ele>72</ele>
        <time>2019-09-16T16:58:47Z</time>
      </trkpt>
      <trkpt lat="59.389480381392" lon="17.997240338518">
        <ele>70.8</ele>
        <time>2019-09-16T16:58:50Z</time>
      </trkpt>
      <trkpt lat="59.389626058814" lon="17.997051997225">
        <ele>69.4</ele>
        <time>2019-09-16T16:58:52Z</time>
      </trkpt>
      <trkpt lat="59.389791685158" lon="17.996876815515">
        <ele>68.2</ele>
        <time>2019-09-16T16:58:54Z</time>
      </trkpt>
      <trkpt lat="59.389991174378" lon="17.996630052379">
        <ele>67</ele>
        <time>2019-09-16T16:58:56Z</time>
      </trkpt>
      <trkpt lat="59.390069209867" lon="17.996486805708">
        <ele>66.6</ele>
        <time>2019-09-16T16:58:57Z</time>
      </trkpt>
      <trkpt lat="59.390136516524" lon="17.996311037265">
        <ele>66</ele>
        <time>2019-09-16T16:58:58Z</time>
      </trkpt>
      <trkpt lat="59.390427200816" lon="17.995237315875">
        <ele>66.4</ele>
        <time>2019-09-16T16:59:04Z</time>
      </trkpt>
      <trkpt lat="59.390472714533" lon="17.995090464987">
        <ele>67.4</ele>
        <time>2019-09-16T16:59:05Z</time>
      </trkpt>
      <trkpt lat="59.390556533533" lon="17.994813694649">
        <ele>68.8</ele>
        <time>2019-09-16T16:59:07Z</time>
      </trkpt>
      <trkpt lat="59.390865071272" lon="17.993862935732">
        <ele>67.2</ele>
        <time>2019-09-16T16:59:15Z</time>
      </trkpt>
      <trkpt lat="59.391006725382" lon="17.993436297022">
        <ele>66.2</ele>
        <time>2019-09-16T16:59:19Z</time>
      </trkpt>
      <trkpt lat="59.391316017492" lon="17.992502804819">
        <ele>66</ele>
        <time>2019-09-16T16:59:28Z</time>
      </trkpt>
      <trkpt lat="59.391572755089" lon="17.991702668645">
        <ele>67.2</ele>
        <time>2019-09-16T16:59:36Z</time>
      </trkpt>
      <trkpt lat="59.3917797042" lon="17.991025578763">
        <ele>68.4</ele>
        <time>2019-09-16T16:59:43Z</time>
      </trkpt>
      <trkpt lat="59.391985228388" lon="17.990294174169">
        <ele>69.4</ele>
        <time>2019-09-16T16:59:51Z</time>
      </trkpt>
      <trkpt lat="59.392119422607" lon="17.989735436715">
        <ele>70.6</ele>
        <time>2019-09-16T16:59:57Z</time>
      </trkpt>
      <trkpt lat="59.392208773661" lon="17.989221877702">
        <ele>71.6</ele>
        <time>2019-09-16T17:00:03Z</time>
      </trkpt>
      <trkpt lat="59.392232745895" lon="17.989135795589">
        <ele>72.2</ele>
        <time>2019-09-16T17:00:04Z</time>
      </trkpt>
      <trkpt lat="59.392299633457" lon="17.988881488743">
        <ele>72.2</ele>
        <time>2019-09-16T17:00:07Z</time>
      </trkpt>
      <trkpt lat="59.392479341393" lon="17.988367762092">
        <ele>72.4</ele>
        <time>2019-09-16T17:00:14Z</time>
      </trkpt>
      <trkpt lat="59.392540110168" lon="17.988219653919">
        <ele>72.8</ele>
        <time>2019-09-16T17:00:16Z</time>
      </trkpt>
      <trkpt lat="59.392617139829" lon="17.988086130252">
        <ele>73.8</ele>
        <time>2019-09-16T17:00:18Z</time>
      </trkpt>
      <trkpt lat="59.39275451917" lon="17.987883707367">
        <ele>75</ele>
        <time>2019-09-16T17:00:21Z</time>
      </trkpt>
      <trkpt lat="59.393000695573" lon="17.987637447145">
        <ele>76</ele>
        <time>2019-09-16T17:00:26Z</time>
      </trkpt>
      <trkpt lat="59.393546189625" lon="17.98729504653">
        <ele>76.4</ele>
        <time>2019-09-16T17:00:36Z</time>
      </trkpt>
      <trkpt lat="59.39375950898" lon="17.987166971098">
        <ele>77</ele>
        <time>2019-09-16T17:00:40Z</time>
      </trkpt>
      <trkpt lat="59.394222022222" lon="17.98678794158">
        <ele>77.8</ele>
        <time>2019-09-16T17:00:49Z</time>
      </trkpt>
      <trkpt lat="59.394312462923" lon="17.986835550772">
        <ele>77.8</ele>
        <time>2019-09-16T17:00:52Z</time>
      </trkpt>
      <trkpt lat="59.394631645675" lon="17.986630613317">
        <ele>78.2</ele>
        <time>2019-09-16T17:00:58Z</time>
      </trkpt>
      <trkpt lat="59.394787800472" lon="17.986533634734">
        <ele>79</ele>
        <time>2019-09-16T17:01:01Z</time>
      </trkpt>
      <trkpt lat="59.395330779954" lon="17.986197269087">
        <ele>78</ele>
        <time>2019-09-16T17:01:12Z</time>
      </trkpt>
      <trkpt lat="59.39585414579" lon="17.985860400526">
        <ele>77.6</ele>
        <time>2019-09-16T17:01:22Z</time>
      </trkpt>
      <trkpt lat="59.396352114469" lon="17.985367712444">
        <ele>77.8</ele>
        <time>2019-09-16T17:01:31Z</time>
      </trkpt>
      <trkpt lat="59.396586640031" lon="17.985131007588">
        <ele>76.8</ele>
        <time>2019-09-16T17:01:35Z</time>
      </trkpt>
      <trkpt lat="59.396704405726" lon="17.985015253549">
        <ele>75.8</ele>
        <time>2019-09-16T17:01:37Z</time>
      </trkpt>
      <trkpt lat="59.397029874903" lon="17.984664722491">
        <ele>76.8</ele>
        <time>2019-09-16T17:01:43Z</time>
      </trkpt>
      <trkpt lat="59.397344196153" lon="17.984352580535">
        <ele>78</ele>
        <time>2019-09-16T17:01:49Z</time>
      </trkpt>
      <trkpt lat="59.397815175114" lon="17.983861401195">
        <ele>79.2</ele>
        <time>2019-09-16T17:01:58Z</time>
      </trkpt>
      <trkpt lat="59.398205604016" lon="17.983323869948">
        <ele>80.4</ele>
        <time>2019-09-16T17:02:07Z</time>
      </trkpt>
      <trkpt lat="59.398245920955" lon="17.983268717046">
        <ele>80.6</ele>
        <time>2019-09-16T17:02:08Z</time>
      </trkpt>
      <trkpt lat="59.39874003396" lon="17.982691874688">
        <ele>81</ele>
        <time>2019-09-16T17:02:18Z</time>
      </trkpt>
      <trkpt lat="59.398961148482" lon="17.982400771301">
        <ele>81.4</ele>
        <time>2019-09-16T17:02:23Z</time>
      </trkpt>
      <trkpt lat="59.399092241398" lon="17.982205473031">
        <ele>82.4</ele>
        <time>2019-09-16T17:02:26Z</time>
      </trkpt>
      <trkpt lat="59.399130127586" lon="17.982128108094">
        <ele>82.4</ele>
        <time>2019-09-16T17:02:27Z</time>
      </trkpt>
      <trkpt lat="59.399542768523" lon="17.981322356047">
        <ele>82.4</ele>
        <time>2019-09-16T17:02:37Z</time>
      </trkpt>
      <trkpt lat="59.399620636374" lon="17.981175672797">
        <ele>82.8</ele>
        <time>2019-09-16T17:02:39Z</time>
      </trkpt>
      <trkpt lat="59.399716190034" lon="17.98088959855">
        <ele>83.8</ele>
        <time>2019-09-16T17:02:42Z</time>
      </trkpt>
      <trkpt lat="59.400098991407" lon="17.980078314449">
        <ele>84.6</ele>
        <time>2019-09-16T17:02:52Z</time>
      </trkpt>
      <trkpt lat="59.400216589464" lon="17.97983850829">
        <ele>84.8</ele>
        <time>2019-09-16T17:02:55Z</time>
      </trkpt>
      <trkpt lat="59.400588410548" lon="17.979061087065">
        <ele>85</ele>
        <time>2019-09-16T17:03:05Z</time>
      </trkpt>
      <trkpt lat="59.400939612158" lon="17.978219879581">
        <ele>86</ele>
        <time>2019-09-16T17:03:15Z</time>
      </trkpt>
      <trkpt lat="59.401319228409" lon="17.977406332367">
        <ele>86.2</ele>
        <time>2019-09-16T17:03:25Z</time>
      </trkpt>
      <trkpt lat="59.401696246271" lon="17.976579709389">
        <ele>86</ele>
        <time>2019-09-16T17:03:35Z</time>
      </trkpt>
      <trkpt lat="59.402075275789" lon="17.975770520763">
        <ele>86.6</ele>
        <time>2019-09-16T17:03:45Z</time>
      </trkpt>
      <trkpt lat="59.402255151363" lon="17.975395514557">
        <ele>87.2</ele>
        <time>2019-09-16T17:03:50Z</time>
      </trkpt>
      <trkpt lat="59.40236185295" lon="17.975159144977">
        <ele>88.2</ele>
        <time>2019-09-16T17:03:53Z</time>
      </trkpt>
      <trkpt lat="59.402573412106" lon="17.97471549101">
        <ele>87</ele>
        <time>2019-09-16T17:03:59Z</time>
      </trkpt>
      <trkpt lat="59.402792934067" lon="17.974265466799">
        <ele>87.4</ele>
        <time>2019-09-16T17:04:05Z</time>
      </trkpt>
      <trkpt lat="59.402850266263" lon="17.974103779948">
        <ele>87.4</ele>
        <time>2019-09-16T17:04:07Z</time>
      </trkpt>
      <trkpt lat="59.402886895166" lon="17.974021218233">
        <ele>87.6</ele>
        <time>2019-09-16T17:04:08Z</time>
      </trkpt>
      <trkpt lat="59.4029863045" lon="17.973981152751">
        <ele>87.8</ele>
        <time>2019-09-16T17:04:10Z</time>
      </trkpt>
      <trkpt lat="59.403121923642" lon="17.974005879356">
        <ele>87.4</ele>
        <time>2019-09-16T17:04:12Z</time>
      </trkpt>
      <trkpt lat="59.403289813099" lon="17.974178462677">
        <ele>87.2</ele>
        <time>2019-09-16T17:04:15Z</time>
      </trkpt>
      <trkpt lat="59.403440938756" lon="17.974345765401">
        <ele>87.4</ele>
        <time>2019-09-16T17:04:18Z</time>
      </trkpt>
      <trkpt lat="59.403655012482" lon="17.974471158625">
        <ele>88.4</ele>
        <time>2019-09-16T17:04:22Z</time>
      </trkpt>
      <trkpt lat="59.404119369742" lon="17.974727728584">
        <ele>86.6</ele>
        <time>2019-09-16T17:04:29Z</time>
      </trkpt>
      <trkpt lat="59.404250965572" lon="17.974834849266">
        <ele>85</ele>
        <time>2019-09-16T17:04:31Z</time>
      </trkpt>
      <trkpt lat="59.404394715157" lon="17.974952363504">
        <ele>84.4</ele>
        <time>2019-09-16T17:04:33Z</time>
      </trkpt>
      <trkpt lat="59.404534189973" lon="17.975148499964">
        <ele>84.6</ele>
        <time>2019-09-16T17:04:35Z</time>
      </trkpt>
      <trkpt lat="59.40487809933" lon="17.976026587808">
        <ele>85.8</ele>
        <time>2019-09-16T17:04:42Z</time>
      </trkpt>
      <trkpt lat="59.405107344295" lon="17.976551630024">
        <ele>86.2</ele>
        <time>2019-09-16T17:04:47Z</time>
      </trkpt>
      <trkpt lat="59.405208681466" lon="17.97668439932">
        <ele>86.2</ele>
        <time>2019-09-16T17:04:49Z</time>
      </trkpt>
      <trkpt lat="59.40531982546" lon="17.976760255515">
        <ele>86.8</ele>
        <time>2019-09-16T17:04:51Z</time>
      </trkpt>
      <trkpt lat="59.405433651662" lon="17.976840973212">
        <ele>86.8</ele>
        <time>2019-09-16T17:04:53Z</time>
      </trkpt>
      <trkpt lat="59.40552685839" lon="17.976965947341">
        <ele>87.2</ele>
        <time>2019-09-16T17:04:55Z</time>
      </trkpt>
      <trkpt lat="59.405570863365" lon="17.977025626469">
        <ele>87.4</ele>
        <time>2019-09-16T17:04:56Z</time>
      </trkpt>
      <trkpt lat="59.405678486961" lon="17.977040210975">
        <ele>87.6</ele>
        <time>2019-09-16T17:04:58Z</time>
      </trkpt>
      <trkpt lat="59.405776052277" lon="17.97698530953">
        <ele>87.8</ele>
        <time>2019-09-16T17:05:00Z</time>
      </trkpt>
      <trkpt lat="59.405874623421" lon="17.9768620956">
        <ele>88</ele>
        <time>2019-09-16T17:05:02Z</time>
      </trkpt>
      <trkpt lat="59.406315930456" lon="17.976074699914">
        <ele>88</ele>
        <time>2019-09-16T17:05:11Z</time>
      </trkpt>
      <trkpt lat="59.406478120221" lon="17.97582274">
        <ele>88.4</ele>
        <time>2019-09-16T17:05:15Z</time>
      </trkpt>
      <trkpt lat="59.406639639434" lon="17.975621490581">
        <ele>90</ele>
        <time>2019-09-16T17:05:19Z</time>
      </trkpt>
      <trkpt lat="59.406732091791" lon="17.975465335784">
        <ele>91</ele>
        <time>2019-09-16T17:05:21Z</time>
      </trkpt>
      <trkpt lat="59.406773330739" lon="17.975378583119">
        <ele>91.4</ele>
        <time>2019-09-16T17:05:22Z</time>
      </trkpt>
      <trkpt lat="59.406874081177" lon="17.975329213728">
        <ele>92</ele>
        <time>2019-09-16T17:05:24Z</time>
      </trkpt>
      <trkpt lat="59.406991679234" lon="17.975308510435">
        <ele>92.2</ele>
        <time>2019-09-16T17:05:26Z</time>
      </trkpt>
      <trkpt lat="59.407525270988" lon="17.975045402594">
        <ele>92.4</ele>
        <time>2019-09-16T17:05:34Z</time>
      </trkpt>
      <trkpt lat="59.408057437819" lon="17.974665283429">
        <ele>91.4</ele>
        <time>2019-09-16T17:05:42Z</time>
      </trkpt>
      <trkpt lat="59.40834904412" lon="17.974317015484">
        <ele>93.2</ele>
        <time>2019-09-16T17:05:48Z</time>
      </trkpt>
      <trkpt lat="59.408441412658" lon="17.974127836001">
        <ele>94.4</ele>
        <time>2019-09-16T17:05:51Z</time>
      </trkpt>
      <trkpt lat="59.40853428411" lon="17.973962880209">
        <ele>95.2</ele>
        <time>2019-09-16T17:05:55Z</time>
      </trkpt>
      <trkpt lat="59.408621204413" lon="17.974093386392">
        <ele>95.2</ele>
        <time>2019-09-16T17:05:58Z</time>
      </trkpt>
      <trkpt lat="59.408797140494" lon="17.974475684851">
        <ele>95.2</ele>
        <time>2019-09-16T17:06:03Z</time>
      </trkpt>
      <trkpt lat="59.408834020854" lon="17.974561012593">
        <ele>95.6</ele>
        <time>2019-09-16T17:06:04Z</time>
      </trkpt>
      <trkpt lat="59.40887207468" lon="17.974633767485">
        <ele>95.8</ele>
        <time>2019-09-16T17:06:05Z</time>
      </trkpt>
      <trkpt lat="59.408968215073" lon="17.974746839316">
        <ele>95.2</ele>
        <time>2019-09-16T17:06:07Z</time>
      </trkpt>
      <trkpt lat="59.409081705999" lon="17.974699313943">
        <ele>95.2</ele>
        <time>2019-09-16T17:06:09Z</time>
      </trkpt>
      <trkpt lat="59.409547907277" lon="17.973970004824">
        <ele>95</ele>
        <time>2019-09-16T17:06:19Z</time>
      </trkpt>
      <trkpt lat="59.409651339923" lon="17.973866991273">
        <ele>95</ele>
        <time>2019-09-16T17:06:21Z</time>
      </trkpt>
      <trkpt lat="59.409708169205" lon="17.973836397338">
        <ele>94.4</ele>
        <time>2019-09-16T17:06:22Z</time>
      </trkpt>
      <trkpt lat="59.409832221325" lon="17.973792476182">
        <ele>93.2</ele>
        <time>2019-09-16T17:06:24Z</time>
      </trkpt>
      <trkpt lat="59.410444854396" lon="17.973565913425">
        <ele>93</ele>
        <time>2019-09-16T17:06:31Z</time>
      </trkpt>
      <trkpt lat="59.410937877754" lon="17.973430881016">
        <ele>92</ele>
        <time>2019-09-16T17:06:37Z</time>
      </trkpt>
      <trkpt lat="59.411350770148" lon="17.973436915984">
        <ele>90.2</ele>
        <time>2019-09-16T17:06:42Z</time>
      </trkpt>
      <trkpt lat="59.411439953564" lon="17.973430461921">
        <ele>89</ele>
        <time>2019-09-16T17:06:43Z</time>
      </trkpt>
      <trkpt lat="59.411528047333" lon="17.973420571279">
        <ele>87.4</ele>
        <time>2019-09-16T17:06:44Z</time>
      </trkpt>
      <trkpt lat="59.411697361713" lon="17.973395509398">
        <ele>86.2</ele>
        <time>2019-09-16T17:06:46Z</time>
      </trkpt>
      <trkpt lat="59.411977484811" lon="17.973357371753">
        <ele>87.2</ele>
        <time>2019-09-16T17:06:50Z</time>
      </trkpt>
      <trkpt lat="59.41202031632" lon="17.973360808332">
        <ele>87.8</ele>
        <time>2019-09-16T17:06:51Z</time>
      </trkpt>
      <trkpt lat="59.412061890544" lon="17.973361395065">
        <ele>88.4</ele>
        <time>2019-09-16T17:06:52Z</time>
      </trkpt>
      <trkpt lat="59.412192480546" lon="17.973344715084">
        <ele>88.6</ele>
        <time>2019-09-16T17:06:55Z</time>
      </trkpt>
      <trkpt lat="59.412746943231" lon="17.973209012123">
        <ele>87.6</ele>
        <time>2019-09-16T17:07:07Z</time>
      </trkpt>
      <trkpt lat="59.413197805632" lon="17.973124522571">
        <ele>89.8</ele>
        <time>2019-09-16T17:07:15Z</time>
      </trkpt>
      <trkpt lat="59.413697618329" lon="17.973010528731">
        <ele>90.8</ele>
        <time>2019-09-16T17:07:24Z</time>
      </trkpt>
      <trkpt lat="59.413902304327" lon="17.972988568153">
        <ele>92</ele>
        <time>2019-09-16T17:07:28Z</time>
      </trkpt>
      <trkpt lat="59.414116797148" lon="17.972934421079">
        <ele>93.2</ele>
        <time>2019-09-16T17:07:32Z</time>
      </trkpt>
      <trkpt lat="59.414576376725" lon="17.972912125225">
        <ele>92</ele>
        <time>2019-09-16T17:07:40Z</time>
      </trkpt>
      <trkpt lat="59.415174844385" lon="17.972869293716">
        <ele>91.6</ele>
        <time>2019-09-16T17:07:49Z</time>
      </trkpt>
      <trkpt lat="59.415243827422" lon="17.972868036431">
        <ele>91.6</ele>
        <time>2019-09-16T17:07:50Z</time>
      </trkpt>
      <trkpt lat="59.415734755305" lon="17.972813554081">
        <ele>93.2</ele>
        <time>2019-09-16T17:07:59Z</time>
      </trkpt>
      <trkpt lat="59.416286535782" lon="17.972663098976">
        <ele>94.4</ele>
        <time>2019-09-16T17:08:10Z</time>
      </trkpt>
      <trkpt lat="59.416733207233" lon="17.972576933044">
        <ele>92.8</ele>
        <time>2019-09-16T17:08:17Z</time>
      </trkpt>
      <trkpt lat="59.416793892189" lon="17.97257475375">
        <ele>91.4</ele>
        <time>2019-09-16T17:08:18Z</time>
      </trkpt>
      <trkpt lat="59.416943676742" lon="17.972561091253">
        <ele>90</ele>
        <time>2019-09-16T17:08:20Z</time>
      </trkpt>
      <trkpt lat="59.417246598608" lon="17.972510548396">
        <ele>88.4</ele>
        <time>2019-09-16T17:08:23Z</time>
      </trkpt>
      <trkpt lat="59.417537785814" lon="17.972474422407">
        <ele>87.2</ele>
        <time>2019-09-16T17:08:26Z</time>
      </trkpt>
      <trkpt lat="59.417849257218" lon="17.972434105468">
        <ele>85.8</ele>
        <time>2019-09-16T17:08:29Z</time>
      </trkpt>
      <trkpt lat="59.418035000122" lon="17.972403930628">
        <ele>84.4</ele>
        <time>2019-09-16T17:08:31Z</time>
      </trkpt>
      <trkpt lat="59.418203895407" lon="17.972370822123">
        <ele>82.8</ele>
        <time>2019-09-16T17:08:33Z</time>
      </trkpt>
      <trkpt lat="59.418513690431" lon="17.972275352282">
        <ele>81.6</ele>
        <time>2019-09-16T17:08:37Z</time>
      </trkpt>
      <trkpt lat="59.419043761787" lon="17.972139900778">
        <ele>80.8</ele>
        <time>2019-09-16T17:08:44Z</time>
      </trkpt>
      <trkpt lat="59.419098495594" lon="17.972161861356">
        <ele>80.4</ele>
        <time>2019-09-16T17:08:45Z</time>
      </trkpt>
      <trkpt lat="59.419149373727" lon="17.972189605445">
        <ele>80.2</ele>
        <time>2019-09-16T17:08:46Z</time>
      </trkpt>
      <trkpt lat="59.41923713222" lon="17.972234364791">
        <ele>79.6</ele>
        <time>2019-09-16T17:08:48Z</time>
      </trkpt>
      <trkpt lat="59.419295470244" lon="17.972244925985">
        <ele>79.2</ele>
        <time>2019-09-16T17:08:49Z</time>
      </trkpt>
      <trkpt lat="59.419415247595" lon="17.97224283051">
        <ele>79</ele>
        <time>2019-09-16T17:08:50Z</time>
      </trkpt>
      <trkpt lat="59.419901649252" lon="17.971673364224">
        <ele>79.4</ele>
        <time>2019-09-16T17:08:59Z</time>
      </trkpt>
      <trkpt lat="59.420088817079" lon="17.971046062828">
        <ele>80.2</ele>
        <time>2019-09-16T17:09:05Z</time>
      </trkpt>
      <trkpt lat="59.420399785569" lon="17.970116845394">
        <ele>81</ele>
        <time>2019-09-16T17:09:14Z</time>
      </trkpt>
      <trkpt lat="59.420465248208" lon="17.969945184082">
        <ele>80.8</ele>
        <time>2019-09-16T17:09:16Z</time>
      </trkpt>
      <trkpt lat="59.420540685308" lon="17.969634969963">
        <ele>81.4</ele>
        <time>2019-09-16T17:09:19Z</time>
      </trkpt>
      <trkpt lat="59.420589467966" lon="17.9694273503">
        <ele>82.6</ele>
        <time>2019-09-16T17:09:21Z</time>
      </trkpt>
      <trkpt lat="59.420646883981" lon="17.969223753949">
        <ele>83.8</ele>
        <time>2019-09-16T17:09:23Z</time>
      </trkpt>
      <trkpt lat="59.420761464554" lon="17.968832067762">
        <ele>85</ele>
        <time>2019-09-16T17:09:27Z</time>
      </trkpt>
      <trkpt lat="59.421144517384" lon="17.968238126328">
        <ele>84</ele>
        <time>2019-09-16T17:09:35Z</time>
      </trkpt>
      <trkpt lat="59.421197993906" lon="17.968184230711">
        <ele>83.8</ele>
        <time>2019-09-16T17:09:36Z</time>
      </trkpt>
      <trkpt lat="59.421601414753" lon="17.967774355801">
        <ele>85</ele>
        <time>2019-09-16T17:09:43Z</time>
      </trkpt>
      <trkpt lat="59.421657405845" lon="17.967701349452">
        <ele>86.6</ele>
        <time>2019-09-16T17:09:44Z</time>
      </trkpt>
      <trkpt lat="59.421764107432" lon="17.967559611523">
        <ele>88</ele>
        <time>2019-09-16T17:09:46Z</time>
      </trkpt>
      <trkpt lat="59.421800987792" lon="17.967481576034">
        <ele>87.4</ele>
        <time>2019-09-16T17:09:47Z</time>
      </trkpt>
      <trkpt lat="59.421819763248" lon="17.967389123677">
        <ele>86.2</ele>
        <time>2019-09-16T17:09:48Z</time>
      </trkpt>
      <trkpt lat="59.421817164859" lon="17.967290133438">
        <ele>85</ele>
        <time>2019-09-16T17:09:49Z</time>
      </trkpt>
      <trkpt lat="59.421790761874" lon="17.967065749975">
        <ele>83.6</ele>
        <time>2019-09-16T17:09:51Z</time>
      </trkpt>
      <trkpt lat="59.421746002528" lon="17.966935327611">
        <ele>83</ele>
        <time>2019-09-16T17:09:54Z</time>
      </trkpt>
    </trkseg>
  </trk>
</gpx>